Nearby METAR Reports - 80 Mile Radius
Meteorological Terminal Air Report (METAR)


KBWI - Balto/Wash Intl Airport, Maryland
Distance from station: S 5mi, 8km
Updated: Mon, 24-Apr-2017 2:54pm EDT
Light rain, Overcast
Light rain, Overcast
 Wind from ENE
Wind: ENE 12 mph , 19 km/h
Temperature: 54°F , 12°C
Dew Point: 48°F , 9°C
Humidity: 82%
Barometer: 30.04 inHg , 1017.3 hPa
Summary: Light rain
Clouds: Overcast
Visibility: 5 miles , 8 km
Cloud details: Partly cloudy 3200 ft
Overcast 4500 ft
2017/04/24 18:54 KBWI 241854Z 06010KT 5SM -RA SCT032 OVC045 12/09 A3004 RMK AO2 SLP172 P0006 T01220089
KDMH - Baltimore/Dwntwn, Maryland
Distance from station: NE 5mi, 9km
Updated: Mon, 24-Apr-2017 2:54pm EDT

 
Temperature: 59°F , 15°C
Dew Point: 43°F , 6°C
Humidity: 55%
Barometer: 30.06 inHg , 1017.9 hPa
2017/04/24 18:54 KDMH 241854Z AUTO 15/06 A3006 RMK AO1 SLP177 T01500056
KFME - Fort Meade/Tipton AAF, Maryland
Distance from station: SSW 11mi, 18km
Updated: Mon, 24-Apr-2017 2:39pm EDT
Overcast
Overcast
 Wind from calm
Wind: Calm
Temperature: 52°F , 11°C
Dew Point: 46°F , 8°C
Humidity: 82%
Barometer: 30.07 inHg , 1018.3 hPa
Clouds: Overcast
Visibility: 10 miles , 16 km
Cloud details: Overcast 4300 ft
2017/04/24 18:39 KFME 241839Z AUTO 00000KT 10SM OVC043 11/08 A3007 RMK AO1
 
KMTN - Balto/Martin State Airport, Maryland
Distance from station: ENE 16mi, 26km
Updated: Mon, 24-Apr-2017 2:45pm EDT
Overcast
Overcast
 Wind from ENE
Wind: ENE 9 mph , 15 km/h
Temperature: 59°F , 15°C
Dew Point: 46°F , 8°C
Humidity: 63%
Barometer: 30.07 inHg , 1018.3 hPa
Clouds: Overcast
Visibility: 10 miles , 16 km
Cloud details: Overcast 5000 ft
2017/04/24 18:45 KMTN 241845Z 06008KT 10SM OVC050 15/08 A3007
KCGS - College Park Airport, Maryland
Distance from station: SSW 21mi, 34km
Updated: Mon, 24-Apr-2017 2:41pm EDT
Overcast
Overcast
 Wind from NNE
Wind: NNE 5 mph , 7 km/h
Temperature: 52°F , 11°C
Dew Point: 46°F , 8°C
Humidity: 82%
Barometer: 30.04 inHg , 1017.3 hPa
Clouds: Overcast
Visibility: 7 miles , 11 km
Cloud details: Partly cloudy 3000 ft
Overcast 4200 ft
2017/04/24 18:41 KCGS 241841Z AUTO 02004KT 7SM SCT030 OVC042 11/08 A3004 RMK AO1 T01090079
KNAK - Annapolis/Naval Academy, Maryland
Distance from station: SE 21mi, 34km
Updated: Mon, 24-Apr-2017 2:54pm EDT
Overcast
Overcast
 Wind from ENE
Wind: ENE 9 mph , 15 km/h, Gust: 22 mph , 35 km/h
Temperature: 57°F , 14°C
Dew Point: 48°F , 9°C
Humidity: 72%
Barometer: 30.04 inHg , 1017.3 hPa
Clouds: Overcast
Visibility: 10 miles , 16 km
Cloud details: Overcast 4300 ft
2017/04/24 18:54 KNAK 241854Z AUTO 06008G19KT 10SM OVC043 14/09 A3004 RMK AO2 SLP173 T01440089
 
KGAI - Gaithersburg/Montgomery Co Airpark, Maryland
Distance from station: W 26mi, 41km
Updated: Fri, 24-Mar-2017 10:35am EDT
NOT Current

 
2017/03/24 14:35 KGAI 241435Z AUTO RMK AO1
KW29 - Stevensville/Bay Bridge Airport, Maryland
Distance from station: SE 26mi, 42km
Updated: Mon, 24-Apr-2017 2:35pm EDT
Haze, Overcast
Haze, Overcast
 Wind from ENE
Wind: ENE 7 mph , 11 km/h
Temperature: 57°F , 14°C
Dew Point: 48°F , 9°C
Humidity: 72%
Barometer: 30.04 inHg , 1017.3 hPa
Summary: Haze
Clouds: Overcast
Visibility: 7 miles , 11 km
Cloud details: Overcast 4000 ft
2017/04/24 18:35 KW29 241835Z AUTO 07006KT 7SM HZ OVC040 14/09 A3004 RMK AO2 TSNO
KDMW - Carroll Co Regional Airport, Maryland
Distance from station: NNW 30mi, 48km
Updated: Mon, 24-Apr-2017 3:00pm EDT
Overcast
Overcast
 Wind from ENE
Wind: ENE 10 mph , 17 km/h, Gust: 18 mph , 30 km/h
Temperature: 61°F , 16°C
Dew Point: 37°F , 3°C
Humidity: 42%
Barometer: 30.05 inHg , 1017.6 hPa
Clouds: Overcast
Visibility: 10 miles , 16 km
Cloud details: Overcast 5000 ft
2017/04/24 19:00 KDMW 241900Z AUTO 07009G16KT 10SM OVC050 16/03 A3005 RMK AO2
 
KADW - Andrews AFB, Maryland
Distance from station: SSW 30mi, 49km
Updated: Mon, 24-Apr-2017 3:01pm EDT
Light drizzle, Overcast
Light drizzle, Overcast
 Wind from NE
Wind: NE 10 mph , 17 km/h
Temperature: 52°F , 11°C
Dew Point: 48°F , 9°C
Humidity: 88%
Barometer: 30.02 inHg , 1016.6 hPa
Summary: Light Drizzle
Clouds: Overcast
Visibility: 10 miles , 16 km
Cloud details: Overcast 3300 ft
2017/04/24 19:01 KADW 241901Z AUTO 05009KT 10SM -DZ OVC033 11/09 A3002 RMK AO2 DZB01 SLP173
KAPG - Aberdeen/Phillip AAF, Maryland
Distance from station: ENE 32mi, 52km
Updated: Mon, 24-Apr-2017 2:58pm EDT
Overcast
Overcast
 Wind from E
Wind: E 12 mph , 19 km/h
Temperature: 59°F , 15°C
Dew Point: 43°F , 6°C
Humidity: 55%
Barometer: 30.07 inHg , 1018.3 hPa
Clouds: Overcast
Visibility: 9 miles , 14 km
Cloud details: Few Clouds 3300 ft
Overcast 5000 ft
2017/04/24 18:58 KAPG 241858Z 09010KT 9SM FEW033 OVC050 15/06 A3007 RMK AO2A SLP186 T01490059
KDCA - Washington/Natl Airport, Washington D.C.
Distance from station: SW 32mi, 52km
Updated: Mon, 24-Apr-2017 2:52pm EDT
Rain, Overcast
Rain, Overcast
 Wind from NE
Wind: NE 13 mph , 20 km/h
Temperature: 54°F , 12°C
Dew Point: 48°F , 9°C
Humidity: 82%
Barometer: 30.04 inHg , 1017.3 hPa
Summary: Rain
Clouds: Overcast
Visibility: 4 miles , 6 km
Cloud details: Overcast 3800 ft
2017/04/24 18:52 KDCA 241852Z 05011KT 4SM R01/6000FT RA OVC038 12/09 A3004 RMK AO2 SLP173 P0006 T01220094
 
KFDK - Frederick Municipal Airport, Maryland
Distance from station: WNW 38mi, 61km
Updated: Mon, 24-Apr-2017 2:55pm EDT
Overcast
Overcast
 Wind from NE
Wind: NE 10 mph , 17 km/h
Temperature: 63°F , 17°C
Dew Point: 45°F , 7°C
Humidity: 52%
Barometer: 30.05 inHg , 1017.6 hPa
Clouds: Overcast
Visibility: 10 miles , 16 km
Cloud details: Overcast 5000 ft
2017/04/24 18:55 KFDK 241855Z 05009KT 10SM OVC050 17/07 A3005
KDAA - Fort Belvoir/Davison AAF, Virginia
Distance from station: SW 44mi, 71km
Updated: Mon, 24-Apr-2017 2:58pm EDT
Light rain, Mostly cloudy
Light rain, Mostly cloudy
 Wind from NNE
Wind: NNE 6 mph , 9 km/h
Temperature: 52°F , 11°C
Dew Point: 48°F , 9°C
Humidity: 88%
Barometer: 30.03 inHg , 1016.9 hPa
Summary: Light rain
Clouds: Mostly cloudy
Visibility: 9 miles , 14 km
Cloud details: Partly cloudy 2800 ft
Mostly cloudy 3400 ft
2017/04/24 18:58 KDAA 241858Z AUTO 03005KT 9SM -RA SCT028 BKN034 11/09 A3003 RMK AO2 SLP173 P0006 T01110094
KESN - Easton/Newnam Field Airport, Maryland
Distance from station: SE 45mi, 73km
Updated: Mon, 24-Apr-2017 2:50pm EDT
Overcast
Overcast
 Wind from E
Wind: E 20 mph , 31 km/h, Gust: 28 mph , 44 km/h
Temperature: 57°F , 14°C
Dew Point: 46°F , 8°C
Humidity: 67%
Barometer: 30.07 inHg , 1018.3 hPa
Clouds: Overcast
Visibility: 10 miles , 16 km
Cloud details: Overcast 3400 ft
2017/04/24 18:50 KESN 241850Z 08017G24KT 10SM OVC034 14/08 A3007
 
KIAD - Wash DC/Dulles Intl, Virginia
Distance from station: WSW 45mi, 73km
Updated: Mon, 24-Apr-2017 2:52pm EDT
Light rain, Mist, Overcast
Light rain, Mist, Overcast
 Wind from E
Wind: E 15 mph , 24 km/h, Gust: 20 mph , 31 km/h
Temperature: 54°F , 12°C
Dew Point: 45°F , 7°C
Humidity: 72%
Barometer: 30.04 inHg , 1017.3 hPa
Summary: Light rain, Mist
Clouds: Overcast
Visibility: 6 miles , 10 km
Cloud details: Overcast 3400 ft
2017/04/24 18:52 KIAD 241852Z 08013G17KT 6SM -RA BR OVC034 12/07 A3004 RMK AO2 SLP172 P0001 T01220072
KJYO - Leesburg/Godfrey Field, Virginia
Distance from station: WSW 48mi, 77km
Updated: Mon, 24-Apr-2017 2:55pm EDT
Light rain, Overcast
Light rain, Overcast
 Wind from NE
Wind: NE 12 mph , 19 km/h, Gust: 16 mph , 26 km/h
Temperature: 59°F , 15°C
Dew Point: 46°F , 8°C
Humidity: 63%
Barometer: 30.05 inHg , 1017.6 hPa
Summary: Light rain
Clouds: Overcast
Visibility: 10 miles , 16 km
Cloud details: Overcast 4200 ft
2017/04/24 18:55 KJYO 241855Z AUTO 05010G14KT 040V100 10SM -RA OVC042 15/08 A3005 RMK AO2
KTHV - York Airport, Pennsylvania
Distance from station: NNW 48mi, 77km
Updated: Mon, 24-Apr-2017 2:53pm EDT
Overcast
Overcast
 Wind from ENE
Wind: ENE 12 mph , 19 km/h
Temperature: 57°F , 14°C
Dew Point: 45°F , 7°C
Humidity: 63%
Barometer: 30.08 inHg , 1018.6 hPa
Clouds: Overcast
Visibility: 10 miles , 16 km
Cloud details: Overcast 6000 ft
2017/04/24 18:53 KTHV 241853Z AUTO 06010KT 10SM OVC060 14/07 A3008 RMK AO2 SLP187 T01440072
 
KRSP - Naval Support Fac Thurmont, Maryland, USA
Distance from station: NW 50mi, 81km
Updated: Mon, 24-Apr-2017 1:54pm EDT
Overcast
Overcast
 Wind from ESE
Wind: ESE 13 mph , 20 km/h, Gust: 21 mph , 33 km/h
Temperature: 54°F , 12°C
Dew Point: 37°F , 3°C
Humidity: 54%
Barometer: 30.05 inHg , 1017.6 hPa
Clouds: Overcast
Visibility: 10 miles , 16 km
Cloud details: Mostly cloudy 4100 ft
Overcast 7500 ft
2017/04/24 17:54 KRSP 241754Z AUTO 11011G18KT 10SM BKN041 OVC075 12/03 A3005 RMK AO2 SLP185 60000 T01220033 10122 20083 56013 $
KRYT - Fountain Dale Airport, Pennsylvania
Distance from station: NW 52mi, 84km
Updated: Mon, 24-Apr-2017 1:53pm EDT
Overcast
Overcast
 Wind from NE
Wind: NE 9 mph , 15 km/h
Temperature: 57°F , 14°C
Dew Point: 41°F , 5°C
Humidity: 55%
Barometer: 30.05 inHg , 1017.6 hPa
Clouds: Overcast
Visibility: 10 miles , 16 km
Cloud details: Mostly cloudy 5500 ft
Overcast 9000 ft
2017/04/24 17:53 KRYT 241753Z AUTO 04008KT 010V070 10SM BKN055 OVC090 14/05 A3005 RMK AO2 SLP176 T01440050 10144 20094 58017 TSNO $
KHEF - Manassas Municipal Airport, Virginia
Distance from station: SW 57mi, 91km
Updated: Mon, 24-Apr-2017 3:03pm EDT
Light rain
Light rain
 Wind from NNE
Wind: NNE 14 mph , 22 km/h, Gust: 18 mph , 30 km/h
Temperature: 52°F , 11°C
Dew Point: 48°F , 9°C
Humidity: 88%
Barometer: 30.03 inHg , 1016.9 hPa
Summary: Light rain
Visibility: 10 miles , 16 km
2017/04/24 19:03 KHEF 241903Z 03012G16KT 10SM -RA 11/09 A3003 RMK AO2 PNO $
 
KNYG - Quantico Marine Corps Air Fac, Virginia
Distance from station: SSW 60mi, 96km
Updated: Mon, 24-Apr-2017 2:56pm EDT
Light rain, Overcast
Light rain, Overcast
 Wind from NE
Wind: NE 14 mph , 22 km/h
Temperature: 54°F , 12°C
Dew Point: 52°F , 11°C
Humidity: 94%
Barometer: 30.03 inHg , 1016.9 hPa
Summary: Light rain
Clouds: Overcast
Visibility: 10 miles , 16 km
Cloud details: Mostly cloudy 1100 ft
Overcast 1900 ft
2017/04/24 18:56 KNYG 241856Z 05012KT 10SM -RA BKN011 OVC019 12/11 A3003 RMK AO2 SLP170 WR P0004 T01220111
KCGE - Cambridge-Dorchester Reg Airport, Maryland
Distance from station: SE 60mi, 97km
Updated: Mon, 24-Apr-2017 2:00pm EDT
Overcast
Overcast
 Wind from NE
Wind: NE 10 mph , 17 km/h, Gust: 18 mph , 30 km/h
Temperature: 57°F , 14°C
Dew Point: 50°F , 10°C
Humidity: 77%
Barometer: 30.03 inHg , 1016.9 hPa
Clouds: Overcast
Visibility: 10 miles , 16 km
Cloud details: Overcast 2900 ft
2017/04/24 18:00 KCGE 241800Z AUTO 05009G16KT 020V080 10SM OVC029 14/10 A3003 RMK A01
K2W6 - St Marys Co Reg Airport, Maryland
Distance from station: SSE 64mi, 103km
Updated: Mon, 24-Apr-2017 3:01pm EDT
Overcast
Overcast
 Wind from ENE
Wind: ENE 10 mph , 17 km/h
Temperature: 54°F , 12°C
Dew Point: 50°F , 10°C
Humidity: 88%
Barometer: 30.01 inHg , 1016.3 hPa
Clouds: Overcast
Visibility: 10 miles , 16 km
Cloud details: Overcast 1500 ft
2017/04/24 19:01 K2W6 241901Z AUTO 06009KT 020V110 10SM OVC015 12/10 A3001 RMK AO
 
KHGR - Hagerstown Reg Airport, Maryland
Distance from station: WNW 64mi, 103km
Updated: Mon, 24-Apr-2017 2:53pm EDT
Overcast
Overcast
 Wind from ENE
Wind: ENE 12 mph , 19 km/h
Temperature: 61°F , 16°C
Dew Point: 39°F , 4°C
Humidity: 45%
Barometer: 30.05 inHg , 1017.6 hPa
Clouds: Overcast
Visibility: 10 miles , 16 km
Cloud details: Overcast 5500 ft
2017/04/24 18:53 KHGR 241853Z 07010KT 10SM OVC055 16/04 A3005 RMK AO2 SLP184 T01560044
KLNS - Lancaster Airport, Pennsylvania
Distance from station: NNE 64mi, 104km
Updated: Mon, 24-Apr-2017 2:53pm EDT
Mostly cloudy
Mostly cloudy
 Wind from E
Wind: E 10 mph , 17 km/h
Temperature: 59°F , 15°C
Dew Point: 46°F , 8°C
Humidity: 63%
Barometer: 30.10 inHg , 1019.3 hPa
Clouds: Mostly cloudy
Visibility: 10 miles , 16 km
Cloud details: Mostly cloudy 7500 ft
Mostly cloudy 9000 ft
2017/04/24 18:53 KLNS 241853Z 08009KT 10SM BKN075 BKN090 15/08 A3010 RMK AO2 RAE1759 SLP191 P0000 T01500078
KILG - New Castle Airport, Wilmington, Delaware
Distance from station: ENE 66mi, 106km
Updated: Mon, 24-Apr-2017 2:51pm EDT
Light rain, Overcast
Light rain, Overcast
 Wind from ENE
Wind: ENE 14 mph , 22 km/h
Temperature: 59°F , 15°C
Dew Point: 45°F , 7°C
Humidity: 59%
Barometer: 30.10 inHg , 1019.3 hPa
Summary: Light rain
Clouds: Overcast
Visibility: 10 miles , 16 km
Cloud details: Overcast 6000 ft
2017/04/24 18:51 KILG 241851Z 06012KT 10SM -RA OVC060 15/07 A3010 RMK AO2 RAB49 SLP191 P0000 T01500072
 
KDOV - Dover Air Force Base, Delaware
Distance from station: E 66mi, 107km
Updated: Mon, 24-Apr-2017 2:58pm EDT
Overcast
Overcast
 Wind from ENE
Wind: ENE 13 mph , 20 km/h, Gust: 22 mph , 35 km/h
Temperature: 57°F , 14°C
Dew Point: 57°F , 14°C
Humidity: 100%
Barometer: 30.06 inHg , 1017.9 hPa
Clouds: Overcast
Visibility: 10 miles , 16 km
Cloud details: Overcast 4500 ft
2017/04/24 18:58 KDOV 241858Z AUTO 06011G19KT 10SM OVC045 14/14 A3006 RMK AO2 SLP183 T01360136 $
KMDT - Harrisburg Intl Airport, Middletown, Pennsylvania
Distance from station: N 67mi, 107km
Updated: Mon, 24-Apr-2017 2:56pm EDT
Overcast
Overcast
 Wind from ENE
Wind: ENE 10 mph , 17 km/h, Gust: 22 mph , 35 km/h
Temperature: 61°F , 16°C
Dew Point: 46°F , 8°C
Humidity: 59%
Barometer: 30.08 inHg , 1018.6 hPa
Clouds: Overcast
Visibility: 10 miles , 16 km
Cloud details: Mostly cloudy 7500 ft
Overcast 9000 ft
2017/04/24 18:56 KMDT 241856Z 06009G19KT 10SM BKN075 OVC090 16/08 A3008 RMK AO2 RAB06E53 SLP188 VCSH NE P0000 T01560078 $
KMQS - Chester Co Carlson Airport, Coatesville, Pennsylvania
Distance from station: NE 68mi, 109km
Updated: Mon, 24-Apr-2017 2:55pm EDT
Overcast
Overcast
 Wind from N
Wind: N 0 mph , 0 km/h, Gust: 17 mph , 28 km/h
Temperature: 57°F , 14°C
Dew Point: 43°F , 6°C
Humidity: 59%
Barometer: 30.11 inHg , 1019.6 hPa
Clouds: Overcast
Visibility: 10 miles , 16 km
Cloud details: Overcast 6000 ft
2017/04/24 18:55 KMQS 241855Z AUTO 00000G15KT 10SM OVC060 14/06 A3011 RMK AO2
 
KCXY - Capital City Airport, Harrisburg, Pennsylvania
Distance from station: N 68mi, 110km
Updated: Mon, 24-Apr-2017 2:56pm EDT
Overcast
Overcast
 Wind from NE
Wind: NE 8 mph , 13 km/h
Temperature: 61°F , 16°C
Dew Point: 46°F , 8°C
Humidity: 59%
Barometer: 30.09 inHg , 1019 hPa
Clouds: Overcast
Visibility: 10 miles , 16 km
Cloud details: Overcast 7000 ft
2017/04/24 18:56 KCXY 241856Z 05007KT 10SM OVC070 16/08 A3009 RMK AO2 RAE18 SLP190 P0000 T01610078
KNHK - Patuxent River NAS, Maryland
Distance from station: SE 69mi, 111km
Updated: Mon, 24-Apr-2017 2:52pm EDT
Light rain, Mist, Overcast
Light rain, Mist, Overcast
 Wind from NE
Wind: NE 12 mph , 19 km/h
Temperature: 55°F , 13°C
Dew Point: 55°F , 13°C
Humidity: 100%
Barometer: 30.00 inHg , 1015.9 hPa
Summary: Light rain, Mist
Clouds: Overcast
Visibility: 6 miles , 10 km
Cloud details: Overcast 1500 ft
2017/04/24 18:52 KNHK 241852Z 04010KT 6SM -RA BR OVC015 13/13 A3000 RMK AO2 RAE27B50 SLP160 P0003 T01280128
KMRB - Eastern WV Reg Airport/Shepherd Field, Martinsburg, West Virginia
Distance from station: W 70mi, 112km
Updated: Mon, 24-Apr-2017 2:53pm EDT
Light rain, Overcast
Light rain, Overcast
 Wind from NE
Wind: NE 7 mph , 11 km/h
Temperature: 59°F , 15°C
Dew Point: 43°F , 6°C
Humidity: 55%
Barometer: 30.03 inHg , 1016.9 hPa
Summary: Light rain
Clouds: Overcast
Visibility: 10 miles , 16 km
Cloud details: Overcast 4600 ft
2017/04/24 18:53 KMRB 241853Z 04006KT 10SM -RA OVC046 15/06 A3003 RMK AO2 RAB48 SLP169 P0000 T01500061
 
KHWY - Warrenton-Fauquier Airport, Warrenton, Virginia
Distance from station: SW 71mi, 114km
Updated: Mon, 24-Apr-2017 2:55pm EDT
Light drizzle, Overcast
Light drizzle, Overcast
 Wind from NNE
Wind: NNE 10 mph , 17 km/h
Temperature: 54°F , 12°C
Dew Point: 48°F , 9°C
Humidity: 82%
Barometer: 30.02 inHg , 1016.6 hPa
Summary: Light Drizzle
Clouds: Overcast
Visibility: 10 miles , 16 km
Cloud details: Mostly cloudy 2000 ft
Overcast 2700 ft
2017/04/24 18:55 KHWY 241855Z AUTO 03009KT 10SM -DZ BKN020 OVC027 12/09 A3002 RMK AO2 P0003 T01180091
KRMN - Stafford Regional Airport, Virginia
Distance from station: SW 71mi, 114km
Updated: Mon, 24-Apr-2017 2:55pm EDT
Rain, Overcast
Rain, Overcast
 Wind from NNE
Wind: NNE 6 mph , 9 km/h
Temperature: 52°F , 11°C
Dew Point: 52°F , 11°C
Humidity: 100%
Barometer: 30.05 inHg , 1017.6 hPa
Summary: Rain
Clouds: Overcast
Visibility: 5 miles , 8 km
Cloud details: Overcast 900 ft
2017/04/24 18:55 KRMN 241855Z AUTO 03005KT 5SM RA OVC009 11/11 A3005 RMK AO2 T01060106
KNUI - Webster Naval, St Inigoes, Maryland
Distance from station: S 76mi, 123km
Updated: Mon, 24-Apr-2017 2:53pm EDT
Light rain, Overcast
Light rain, Overcast
 Wind from NE
Wind: NE 14 mph , 22 km/h, Gust: 25 mph , 41 km/h
Temperature: 55°F , 13°C
Dew Point: 54°F , 12°C
Humidity: 94%
Barometer: 29.99 inHg , 1015.6 hPa
Summary: Light rain
Clouds: Overcast
Visibility: 10 miles , 16 km
Cloud details: Overcast 1300 ft
2017/04/24 18:53 KNUI 241853Z AUTO 05012G22KT 10SM -RA OVC013 13/12 A2999 RMK AO2 RAE27B53 SLP153 P0001 T01330117
 
KEZF - Fredericksburg/Shan, Virginia
Distance from station: SSW 78mi, 126km
Updated: Mon, 24-Apr-2017 2:55pm EDT
Light rain, Overcast
Light rain, Overcast
 Wind from NNE
Wind: NNE 6 mph , 9 km/h
Temperature: 52°F , 11°C
Dew Point: 52°F , 11°C
Humidity: 100%
Barometer: 30.00 inHg , 1015.9 hPa
Summary: Light rain
Clouds: Overcast
Visibility: 5 miles , 8 km
Cloud details: Overcast 1100 ft
2017/04/24 18:55 KEZF 241855Z AUTO 02005KT 5SM -RA OVC011 11/11 A3000 RMK AO2 P0003 T01130113
KOKV - Winchester Regional Airport, Virginia
Distance from station: W 78mi, 126km
Updated: Mon, 24-Apr-2017 2:55pm EDT
Drizzle, Overcast
Drizzle, Overcast
 Wind from NNE
Wind: NNE 3 mph , 6 km/h
Temperature: 54°F , 12°C
Dew Point: 45°F , 7°C
Humidity: 72%
Barometer: 30.04 inHg , 1017.3 hPa
Summary: Drizzle
Clouds: Overcast
Visibility: 10 miles , 16 km
Cloud details: Overcast 4000 ft
2017/04/24 18:55 KOKV 241855Z AUTO 03003KT 10SM DZ OVC040 12/07 A3004 RMK AO2
KCJR - Culpeper Regional Airport, Virginia
Distance from station: SW 79mi, 128km
Updated: Mon, 24-Apr-2017 2:55pm EDT
Light rain, Overcast
Light rain, Overcast
 Wind from NNE
Wind: NNE 7 mph , 11 km/h
Temperature: 52°F , 11°C
Dew Point: 50°F , 10°C
Humidity: 94%
Barometer: 30.04 inHg , 1017.3 hPa
Summary: Light rain
Clouds: Overcast
Visibility: 5 miles , 8 km
Cloud details: Overcast 2000 ft
2017/04/24 18:55 KCJR 241855Z AUTO 03006KT 5SM -RA OVC020 11/10 A3004 RMK AO2 P0001 T01120100